sensor_id;sensor_type;location;lat;lon;timestamp;temperature;humidity
11446;DHT22;5779;64.178;15.432;2023-08-06T00:01:38;10.00;99.90
11446;DHT22;5779;64.178;15.432;2023-08-06T00:04:24;10.10;99.90
11446;DHT22;5779;64.178;15.432;2023-08-06T00:07:12;10.10;99.90
11446;DHT22;5779;64.178;15.432;2023-08-06T00:09:59;10.00;99.90
11446;DHT22;5779;64.178;15.432;2023-08-06T00:12:45;10.10;99.90
11446;DHT22;5779;64.178;15.432;2023-08-06T00:15:33;10.10;99.90
11446;DHT22;5779;64.178;15.432;2023-08-06T00:18:20;10.10;99.90
11446;DHT22;5779;64.178;15.432;2023-08-06T00:21:06;10.10;99.90
11446;DHT22;5779;64.178;15.432;2023-08-06T00:23:54;10.00;99.90
11446;DHT22;5779;64.178;15.432;2023-08-06T00:26:41;10.00;99.90
11446;DHT22;5779;64.178;15.432;2023-08-06T00:29:28;9.80;99.90
11446;DHT22;5779;64.178;15.432;2023-08-06T00:32:14;9.80;99.90
11446;DHT22;5779;64.178;15.432;2023-08-06T00:35:01;9.80;99.90
11446;DHT22;5779;64.178;15.432;2023-08-06T00:37:48;9.60;99.90
11446;DHT22;5779;64.178;15.432;2023-08-06T00:40:36;9.40;99.90
11446;DHT22;5779;64.178;15.432;2023-08-06T00:43:23;9.60;99.90
11446;DHT22;5779;64.178;15.432;2023-08-06T00:46:09;9.80;99.90
11446;DHT22;5779;64.178;15.432;2023-08-06T00:48:57;9.90;99.90
11446;DHT22;5779;64.178;15.432;2023-08-06T00:51:44;10.00;99.90
11446;DHT22;5779;64.178;15.432;2023-08-06T00:54:31;10.10;99.90
11446;DHT22;5779;64.178;15.432;2023-08-06T00:57:20;10.10;99.90
11446;DHT22;5779;64.178;15.432;2023-08-06T01:00:09;10.20;99.90
11446;DHT22;5779;64.178;15.432;2023-08-06T01:02:56;10.10;99.90
11446;DHT22;5779;64.178;15.432;2023-08-06T01:05:50;10.00;99.90
11446;DHT22;5779;64.178;15.432;2023-08-06T01:08:48;9.90;99.90
11446;DHT22;5779;64.178;15.432;2023-08-06T01:11:52;9.70;99.90
11446;DHT22;5779;64.178;15.432;2023-08-06T01:14:53;9.90;99.90
11446;DHT22;5779;64.178;15.432;2023-08-06T01:17:50;10.00;99.90
11446;DHT22;5779;64.178;15.432;2023-08-06T01:20:44;9.90;99.90
11446;DHT22;5779;64.178;15.432;2023-08-06T01:23:37;10.10;99.90
11446;DHT22;5779;64.178;15.432;2023-08-06T01:26:35;10.30;99.90
11446;DHT22;5779;64.178;15.432;2023-08-06T01:29:33;10.40;99.90
11446;DHT22;5779;64.178;15.432;2023-08-06T01:32:28;10.50;99.90
11446;DHT22;5779;64.178;15.432;2023-08-06T01:35:23;10.30;99.90
11446;DHT22;5779;64.178;15.432;2023-08-06T01:38:17;10.10;99.90
11446;DHT22;5779;64.178;15.432;2023-08-06T01:41:05;10.10;99.90
11446;DHT22;5779;64.178;15.432;2023-08-06T01:43:52;10.20;99.90
11446;DHT22;5779;64.178;15.432;2023-08-06T01:46:38;10.20;99.90
11446;DHT22;5779;64.178;15.432;2023-08-06T01:49:25;10.40;99.90
11446;DHT22;5779;64.178;15.432;2023-08-06T01:52:12;10.40;99.90
11446;DHT22;5779;64.178;15.432;2023-08-06T01:54:59;10.30;99.90
11446;DHT22;5779;64.178;15.432;2023-08-06T01:57:46;10.00;99.90
11446;DHT22;5779;64.178;15.432;2023-08-06T02:00:33;10.00;99.90
11446;DHT22;5779;64.178;15.432;2023-08-06T02:03:20;10.20;99.90
11446;DHT22;5779;64.178;15.432;2023-08-06T02:06:07;10.20;99.90
11446;DHT22;5779;64.178;15.432;2023-08-06T02:08:53;10.40;99.90
11446;DHT22;5779;64.178;15.432;2023-08-06T02:11:41;10.50;99.90
11446;DHT22;5779;64.178;15.432;2023-08-06T02:14:28;10.50;99.90
11446;DHT22;5779;64.178;15.432;2023-08-06T02:17:15;10.50;99.90
11446;DHT22;5779;64.178;15.432;2023-08-06T02:20:02;10.40;99.90
11446;DHT22;5779;64.178;15.432;2023-08-06T02:22:48;10.50;99.90
11446;DHT22;5779;64.178;15.432;2023-08-06T02:25:35;10.50;99.90
11446;DHT22;5779;64.178;15.432;2023-08-06T02:28:23;10.50;99.90
11446;DHT22;5779;64.178;15.432;2023-08-06T02:31:10;10.50;99.90
11446;DHT22;5779;64.178;15.432;2023-08-06T02:33:56;10.50;99.90
11446;DHT22;5779;64.178;15.432;2023-08-06T02:36:43;10.60;99.90
11446;DHT22;5779;64.178;15.432;2023-08-06T02:39:30;10.60;99.90
11446;DHT22;5779;64.178;15.432;2023-08-06T02:42:16;10.70;99.90
11446;DHT22;5779;64.178;15.432;2023-08-06T02:45:05;10.70;99.90
11446;DHT22;5779;64.178;15.432;2023-08-06T02:47:52;10.60;99.90
11446;DHT22;5779;64.178;15.432;2023-08-06T02:50:39;10.70;99.90
11446;DHT22;5779;64.178;15.432;2023-08-06T02:53:26;10.60;99.90
11446;DHT22;5779;64.178;15.432;2023-08-06T02:56:12;10.40;99.90
11446;DHT22;5779;64.178;15.432;2023-08-06T02:58:59;10.50;99.90
11446;DHT22;5779;64.178;15.432;2023-08-06T03:01:47;10.40;99.90
11446;DHT22;5779;64.178;15.432;2023-08-06T03:04:34;10.30;99.90
11446;DHT22;5779;64.178;15.432;2023-08-06T03:07:21;10.50;99.90
11446;DHT22;5779;64.178;15.432;2023-08-06T03:10:08;10.30;99.90
11446;DHT22;5779;64.178;15.432;2023-08-06T03:12:55;10.40;99.90
11446;DHT22;5779;64.178;15.432;2023-08-06T03:15:42;10.60;99.90
11446;DHT22;5779;64.178;15.432;2023-08-06T03:18:30;10.80;99.90
11446;DHT22;5779;64.178;15.432;2023-08-06T03:21:17;10.80;99.90
11446;DHT22;5779;64.178;15.432;2023-08-06T03:24:04;10.90;99.90
11446;DHT22;5779;64.178;15.432;2023-08-06T03:26:51;11.10;99.90
11446;DHT22;5779;64.178;15.432;2023-08-06T03:29:37;11.10;99.90
11446;DHT22;5779;64.178;15.432;2023-08-06T03:32:24;11.20;99.90
11446;DHT22;5779;64.178;15.432;2023-08-06T03:35:12;11.20;99.90
11446;DHT22;5779;64.178;15.432;2023-08-06T03:37:58;11.10;99.90
11446;DHT22;5779;64.178;15.432;2023-08-06T03:40:46;11.10;99.90
11446;DHT22;5779;64.178;15.432;2023-08-06T03:43:33;11.10;99.90
11446;DHT22;5779;64.178;15.432;2023-08-06T03:46:19;11.10;99.90
11446;DHT22;5779;64.178;15.432;2023-08-06T03:49:06;11.20;99.90
11446;DHT22;5779;64.178;15.432;2023-08-06T03:51:54;11.10;99.90
11446;DHT22;5779;64.178;15.432;2023-08-06T03:54:40;11.10;99.90
11446;DHT22;5779;64.178;15.432;2023-08-06T03:57:28;11.10;99.90
11446;DHT22;5779;64.178;15.432;2023-08-06T04:00:15;11.10;99.90
11446;DHT22;5779;64.178;15.432;2023-08-06T04:03:01;11.20;99.90
11446;DHT22;5779;64.178;15.432;2023-08-06T04:05:48;11.30;99.90
11446;DHT22;5779;64.178;15.432;2023-08-06T04:08:36;11.30;99.90
11446;DHT22;5779;64.178;15.432;2023-08-06T04:11:22;11.30;99.90
11446;DHT22;5779;64.178;15.432;2023-08-06T04:14:09;11.50;99.90
11446;DHT22;5779;64.178;15.432;2023-08-06T04:16:55;11.40;99.90
11446;DHT22;5779;64.178;15.432;2023-08-06T04:19:42;11.40;99.90
11446;DHT22;5779;64.178;15.432;2023-08-06T04:22:29;11.40;99.90
11446;DHT22;5779;64.178;15.432;2023-08-06T04:25:17;11.50;99.90
11446;DHT22;5779;64.178;15.432;2023-08-06T04:28:06;11.60;99.90
11446;DHT22;5779;64.178;15.432;2023-08-06T04:30:52;11.80;99.90
11446;DHT22;5779;64.178;15.432;2023-08-06T04:33:39;11.80;99.90
11446;DHT22;5779;64.178;15.432;2023-08-06T04:36:25;11.70;99.90
11446;DHT22;5779;64.178;15.432;2023-08-06T04:39:12;11.80;99.90
11446;DHT22;5779;64.178;15.432;2023-08-06T04:42:00;11.70;99.90
11446;DHT22;5779;64.178;15.432;2023-08-06T04:44:47;11.60;99.90
11446;DHT22;5779;64.178;15.432;2023-08-06T04:47:34;11.60;99.90
11446;DHT22;5779;64.178;15.432;2023-08-06T04:50:20;11.60;99.90
11446;DHT22;5779;64.178;15.432;2023-08-06T04:53:07;11.70;99.90
11446;DHT22;5779;64.178;15.432;2023-08-06T04:55:54;11.90;99.90
11446;DHT22;5779;64.178;15.432;2023-08-06T04:58:42;11.90;99.90
11446;DHT22;5779;64.178;15.432;2023-08-06T05:01:28;12.00;99.90
11446;DHT22;5779;64.178;15.432;2023-08-06T05:04:15;12.20;99.90
11446;DHT22;5779;64.178;15.432;2023-08-06T05:07:02;12.30;99.90
11446;DHT22;5779;64.178;15.432;2023-08-06T05:09:49;12.40;99.90
11446;DHT22;5779;64.178;15.432;2023-08-06T05:12:35;12.40;99.90
11446;DHT22;5779;64.178;15.432;2023-08-06T05:15:23;12.40;99.90
11446;DHT22;5779;64.178;15.432;2023-08-06T05:18:11;12.50;99.90
11446;DHT22;5779;64.178;15.432;2023-08-06T05:20:57;12.50;99.90
11446;DHT22;5779;64.178;15.432;2023-08-06T05:23:44;12.70;99.90
11446;DHT22;5779;64.178;15.432;2023-08-06T05:26:31;12.70;99.90
11446;DHT22;5779;64.178;15.432;2023-08-06T05:29:17;12.60;99.90
11446;DHT22;5779;64.178;15.432;2023-08-06T05:32:06;12.30;99.90
11446;DHT22;5779;64.178;15.432;2023-08-06T05:34:54;12.40;99.90
11446;DHT22;5779;64.178;15.432;2023-08-06T05:37:40;12.30;99.90
11446;DHT22;5779;64.178;15.432;2023-08-06T05:40:27;12.30;99.90
11446;DHT22;5779;64.178;15.432;2023-08-06T05:43:13;12.30;99.90
11446;DHT22;5779;64.178;15.432;2023-08-06T05:46:00;12.20;99.90
11446;DHT22;5779;64.178;15.432;2023-08-06T05:48:47;12.20;99.90
11446;DHT22;5779;64.178;15.432;2023-08-06T05:51:36;12.20;99.90
11446;DHT22;5779;64.178;15.432;2023-08-06T05:54:22;12.30;99.90
11446;DHT22;5779;64.178;15.432;2023-08-06T05:57:09;12.20;99.90
11446;DHT22;5779;64.178;15.432;2023-08-06T05:59:56;12.20;99.90
11446;DHT22;5779;64.178;15.432;2023-08-06T06:02:42;12.20;99.90
11446;DHT22;5779;64.178;15.432;2023-08-06T06:05:30;12.30;99.90
11446;DHT22;5779;64.178;15.432;2023-08-06T06:08:16;12.20;99.90
11446;DHT22;5779;64.178;15.432;2023-08-06T06:11:03;12.10;99.90
11446;DHT22;5779;64.178;15.432;2023-08-06T06:13:51;12.10;99.90
11446;DHT22;5779;64.178;15.432;2023-08-06T06:16:37;12.40;99.90
11446;DHT22;5779;64.178;15.432;2023-08-06T06:19:24;12.30;99.90
11446;DHT22;5779;64.178;15.432;2023-08-06T06:22:13;12.50;99.90
11446;DHT22;5779;64.178;15.432;2023-08-06T06:25:00;12.60;99.90
11446;DHT22;5779;64.178;15.432;2023-08-06T06:27:47;12.60;99.90
11446;DHT22;5779;64.178;15.432;2023-08-06T06:30:34;12.80;99.90
11446;DHT22;5779;64.178;15.432;2023-08-06T06:33:20;13.00;99.90
11446;DHT22;5779;64.178;15.432;2023-08-06T06:36:07;13.10;99.90
11446;DHT22;5779;64.178;15.432;2023-08-06T06:38:56;13.30;99.90
11446;DHT22;5779;64.178;15.432;2023-08-06T06:41:43;13.30;99.90
11446;DHT22;5779;64.178;15.432;2023-08-06T06:44:29;13.40;99.90
11446;DHT22;5779;64.178;15.432;2023-08-06T06:47:16;13.50;99.90
11446;DHT22;5779;64.178;15.432;2023-08-06T06:50:03;13.10;99.90
11446;DHT22;5779;64.178;15.432;2023-08-06T06:52:49;12.90;99.90
11446;DHT22;5779;64.178;15.432;2023-08-06T06:55:38;13.00;99.90
11446;DHT22;5779;64.178;15.432;2023-08-06T06:58:24;13.10;99.90
11446;DHT22;5779;64.178;15.432;2023-08-06T07:01:11;12.90;99.90
11446;DHT22;5779;64.178;15.432;2023-08-06T07:03:58;13.20;99.90
11446;DHT22;5779;64.178;15.432;2023-08-06T07:06:49;13.40;99.90
11446;DHT22;5779;64.178;15.432;2023-08-06T07:09:37;13.60;99.90
11446;DHT22;5779;64.178;15.432;2023-08-06T07:12:25;13.80;99.90
11446;DHT22;5779;64.178;15.432;2023-08-06T07:15:12;13.60;99.90
11446;DHT22;5779;64.178;15.432;2023-08-06T07:17:58;13.60;99.90
11446;DHT22;5779;64.178;15.432;2023-08-06T07:20:48;13.70;99.90
11446;DHT22;5779;64.178;15.432;2023-08-06T07:23:35;13.70;99.90
11446;DHT22;5779;64.178;15.432;2023-08-06T07:26:21;13.70;99.90
11446;DHT22;5779;64.178;15.432;2023-08-06T07:29:09;13.70;99.90
11446;DHT22;5779;64.178;15.432;2023-08-06T07:31:56;13.70;99.90
11446;DHT22;5779;64.178;15.432;2023-08-06T07:34:42;13.80;99.90
11446;DHT22;5779;64.178;15.432;2023-08-06T07:37:29;14.00;99.90
11446;DHT22;5779;64.178;15.432;2023-08-06T07:40:16;14.00;99.90
11446;DHT22;5779;64.178;15.432;2023-08-06T07:43:06;14.20;99.90
11446;DHT22;5779;64.178;15.432;2023-08-06T07:45:58;14.40;99.90
11446;DHT22;5779;64.178;15.432;2023-08-06T07:48:51;14.50;99.90
11446;DHT22;5779;64.178;15.432;2023-08-06T07:51:40;14.70;99.90
11446;DHT22;5779;64.178;15.432;2023-08-06T07:54:33;15.00;99.90
11446;DHT22;5779;64.178;15.432;2023-08-06T07:57:21;15.10;99.90
11446;DHT22;5779;64.178;15.432;2023-08-06T08:00:08;15.40;99.90
11446;DHT22;5779;64.178;15.432;2023-08-06T08:02:58;15.20;99.90
11446;DHT22;5779;64.178;15.432;2023-08-06T08:05:46;15.40;99.90
11446;DHT22;5779;64.178;15.432;2023-08-06T08:08:39;15.80;99.90
11446;DHT22;5779;64.178;15.432;2023-08-06T08:11:30;16.10;99.90
11446;DHT22;5779;64.178;15.432;2023-08-06T08:14:23;16.40;99.90
11446;DHT22;5779;64.178;15.432;2023-08-06T08:17:12;16.70;99.90
11446;DHT22;5779;64.178;15.432;2023-08-06T08:20:03;17.00;99.90
11446;DHT22;5779;64.178;15.432;2023-08-06T08:22:52;17.30;99.90
11446;DHT22;5779;64.178;15.432;2023-08-06T08:25:43;17.30;99.90
11446;DHT22;5779;64.178;15.432;2023-08-06T08:28:36;17.50;99.90
11446;DHT22;5779;64.178;15.432;2023-08-06T08:31:26;17.60;99.90
11446;DHT22;5779;64.178;15.432;2023-08-06T08:34:19;17.60;99.90
11446;DHT22;5779;64.178;15.432;2023-08-06T08:37:11;17.70;99.90
11446;DHT22;5779;64.178;15.432;2023-08-06T08:40:04;17.80;99.90
11446;DHT22;5779;64.178;15.432;2023-08-06T08:42:51;18.10;99.90
11446;DHT22;5779;64.178;15.432;2023-08-06T08:45:40;18.20;99.90
11446;DHT22;5779;64.178;15.432;2023-08-06T08:48:30;18.40;99.90
11446;DHT22;5779;64.178;15.432;2023-08-06T08:51:23;18.40;99.90
11446;DHT22;5779;64.178;15.432;2023-08-06T08:54:13;18.30;99.90
11446;DHT22;5779;64.178;15.432;2023-08-06T08:57:03;18.30;99.90
11446;DHT22;5779;64.178;15.432;2023-08-06T08:59:55;18.10;99.90
11446;DHT22;5779;64.178;15.432;2023-08-06T09:02:43;18.20;99.90
11446;DHT22;5779;64.178;15.432;2023-08-06T09:05:31;18.40;99.90
11446;DHT22;5779;64.178;15.432;2023-08-06T09:08:20;18.30;99.90
11446;DHT22;5779;64.178;15.432;2023-08-06T09:11:13;18.40;99.90
11446;DHT22;5779;64.178;15.432;2023-08-06T09:14:00;18.50;99.90
11446;DHT22;5779;64.178;15.432;2023-08-06T09:16:50;18.60;99.90
11446;DHT22;5779;64.178;15.432;2023-08-06T09:19:43;18.70;99.90
11446;DHT22;5779;64.178;15.432;2023-08-06T09:22:34;18.70;99.90
11446;DHT22;5779;64.178;15.432;2023-08-06T09:25:24;18.80;99.90
11446;DHT22;5779;64.178;15.432;2023-08-06T09:28:17;19.00;99.90
11446;DHT22;5779;64.178;15.432;2023-08-06T09:31:10;19.10;99.90
11446;DHT22;5779;64.178;15.432;2023-08-06T09:33:59;19.10;99.90
11446;DHT22;5779;64.178;15.432;2023-08-06T09:36:51;19.20;99.90
11446;DHT22;5779;64.178;15.432;2023-08-06T09:39:42;19.20;99.90
11446;DHT22;5779;64.178;15.432;2023-08-06T09:42:36;19.20;99.90
11446;DHT22;5779;64.178;15.432;2023-08-06T09:45:33;18.80;99.90
11446;DHT22;5779;64.178;15.432;2023-08-06T09:48:25;19.00;99.90
11446;DHT22;5779;64.178;15.432;2023-08-06T09:51:15;19.30;99.90
11446;DHT22;5779;64.178;15.432;2023-08-06T09:54:09;19.60;99.90
11446;DHT22;5779;64.178;15.432;2023-08-06T09:57:03;19.40;99.90
11446;DHT22;5779;64.178;15.432;2023-08-06T09:59:56;19.00;99.90
11446;DHT22;5779;64.178;15.432;2023-08-06T10:02:45;19.00;99.90
11446;DHT22;5779;64.178;15.432;2023-08-06T10:05:34;18.90;99.90
11446;DHT22;5779;64.178;15.432;2023-08-06T10:08:27;18.60;99.90
11446;DHT22;5779;64.178;15.432;2023-08-06T10:11:22;18.40;99.90
11446;DHT22;5779;64.178;15.432;2023-08-06T10:14:14;18.50;99.90
11446;DHT22;5779;64.178;15.432;2023-08-06T10:17:05;18.70;99.90
11446;DHT22;5779;64.178;15.432;2023-08-06T10:19:59;19.00;99.90
11446;DHT22;5779;64.178;15.432;2023-08-06T10:23:00;19.30;99.90
11446;DHT22;5779;64.178;15.432;2023-08-06T10:25:53;19.40;99.90
11446;DHT22;5779;64.178;15.432;2023-08-06T10:28:41;19.50;99.90
11446;DHT22;5779;64.178;15.432;2023-08-06T10:31:58;19.70;99.90
11446;DHT22;5779;64.178;15.432;2023-08-06T10:34:54;19.80;99.90
11446;DHT22;5779;64.178;15.432;2023-08-06T10:37:45;19.80;99.90
11446;DHT22;5779;64.178;15.432;2023-08-06T10:40:32;19.90;99.90
11446;DHT22;5779;64.178;15.432;2023-08-06T10:43:27;20.40;99.90
11446;DHT22;5779;64.178;15.432;2023-08-06T10:46:23;20.50;99.90
11446;DHT22;5779;64.178;15.432;2023-08-06T10:49:14;20.40;99.90
11446;DHT22;5779;64.178;15.432;2023-08-06T10:52:04;20.20;99.90
11446;DHT22;5779;64.178;15.432;2023-08-06T10:54:54;20.10;99.90
11446;DHT22;5779;64.178;15.432;2023-08-06T10:57:41;20.20;99.90
11446;DHT22;5779;64.178;15.432;2023-08-06T11:00:28;20.30;99.90
11446;DHT22;5779;64.178;15.432;2023-08-06T11:03:16;20.10;99.90
11446;DHT22;5779;64.178;15.432;2023-08-06T11:06:03;20.10;99.90
11446;DHT22;5779;64.178;15.432;2023-08-06T11:08:50;20.20;99.90
11446;DHT22;5779;64.178;15.432;2023-08-06T11:11:39;20.20;99.90
11446;DHT22;5779;64.178;15.432;2023-08-06T11:14:30;19.90;99.90
11446;DHT22;5779;64.178;15.432;2023-08-06T11:17:17;20.10;99.90
11446;DHT22;5779;64.178;15.432;2023-08-06T11:20:04;20.20;99.90
11446;DHT22;5779;64.178;15.432;2023-08-06T11:22:51;20.30;99.90
11446;DHT22;5779;64.178;15.432;2023-08-06T11:25:44;20.70;99.90
11446;DHT22;5779;64.178;15.432;2023-08-06T11:28:32;20.60;99.90
11446;DHT22;5779;64.178;15.432;2023-08-06T11:31:19;20.80;99.90
11446;DHT22;5779;64.178;15.432;2023-08-06T11:34:06;20.60;99.90
11446;DHT22;5779;64.178;15.432;2023-08-06T11:36:53;20.60;99.90
11446;DHT22;5779;64.178;15.432;2023-08-06T11:39:47;20.50;99.90
11446;DHT22;5779;64.178;15.432;2023-08-06T11:42:35;20.80;99.90
11446;DHT22;5779;64.178;15.432;2023-08-06T11:45:24;20.70;99.90
11446;DHT22;5779;64.178;15.432;2023-08-06T11:48:10;20.90;99.90
11446;DHT22;5779;64.178;15.432;2023-08-06T11:50:57;21.10;99.90
11446;DHT22;5779;64.178;15.432;2023-08-06T11:53:48;21.00;99.90
11446;DHT22;5779;64.178;15.432;2023-08-06T11:56:35;20.70;99.90
11446;DHT22;5779;64.178;15.432;2023-08-06T11:59:22;20.40;99.90
11446;DHT22;5779;64.178;15.432;2023-08-06T12:02:10;20.50;99.90
11446;DHT22;5779;64.178;15.432;2023-08-06T12:05:01;20.70;99.90
11446;DHT22;5779;64.178;15.432;2023-08-06T12:07:56;21.00;99.90
11446;DHT22;5779;64.178;15.432;2023-08-06T12:10:48;20.70;99.90
11446;DHT22;5779;64.178;15.432;2023-08-06T12:13:39;20.80;99.90
11446;DHT22;5779;64.178;15.432;2023-08-06T12:16:33;20.80;99.90
11446;DHT22;5779;64.178;15.432;2023-08-06T12:19:28;21.00;99.90
11446;DHT22;5779;64.178;15.432;2023-08-06T12:22:21;21.00;99.90
11446;DHT22;5779;64.178;15.432;2023-08-06T12:25:13;21.00;99.90
11446;DHT22;5779;64.178;15.432;2023-08-06T12:28:07;20.70;99.90
11446;DHT22;5779;64.178;15.432;2023-08-06T12:30:56;20.30;99.90
11446;DHT22;5779;64.178;15.432;2023-08-06T12:33:45;20.30;99.90
11446;DHT22;5779;64.178;15.432;2023-08-06T12:36:33;20.30;99.90
11446;DHT22;5779;64.178;15.432;2023-08-06T12:39:25;20.10;99.90
11446;DHT22;5779;64.178;15.432;2023-08-06T12:42:13;20.00;99.90
11446;DHT22;5779;64.178;15.432;2023-08-06T12:45:00;20.00;99.90
11446;DHT22;5779;64.178;15.432;2023-08-06T12:47:48;19.90;99.90
11446;DHT22;5779;64.178;15.432;2023-08-06T12:50:35;19.80;99.90
11446;DHT22;5779;64.178;15.432;2023-08-06T12:53:23;20.00;99.90
11446;DHT22;5779;64.178;15.432;2023-08-06T12:56:10;20.10;99.90
11446;DHT22;5779;64.178;15.432;2023-08-06T12:58:56;20.30;99.90
11446;DHT22;5779;64.178;15.432;2023-08-06T13:01:44;20.40;99.90
11446;DHT22;5779;64.178;15.432;2023-08-06T13:04:30;20.50;99.90
11446;DHT22;5779;64.178;15.432;2023-08-06T13:07:19;20.50;99.90
11446;DHT22;5779;64.178;15.432;2023-08-06T13:10:08;20.70;99.90
11446;DHT22;5779;64.178;15.432;2023-08-06T13:12:54;20.80;99.90
11446;DHT22;5779;64.178;15.432;2023-08-06T13:15:41;21.10;99.90
11446;DHT22;5779;64.178;15.432;2023-08-06T13:18:28;21.20;99.90
11446;DHT22;5779;64.178;15.432;2023-08-06T13:21:16;21.40;99.90
11446;DHT22;5779;64.178;15.432;2023-08-06T13:24:03;21.50;99.90
11446;DHT22;5779;64.178;15.432;2023-08-06T13:26:51;21.50;99.90
11446;DHT22;5779;64.178;15.432;2023-08-06T13:29:38;21.70;99.90
11446;DHT22;5779;64.178;15.432;2023-08-06T13:32:24;21.80;99.90
11446;DHT22;5779;64.178;15.432;2023-08-06T13:35:11;21.80;99.90
11446;DHT22;5779;64.178;15.432;2023-08-06T13:37:57;22.00;99.90
11446;DHT22;5779;64.178;15.432;2023-08-06T13:40:44;22.40;99.90
11446;DHT22;5779;64.178;15.432;2023-08-06T13:43:33;22.60;99.90
11446;DHT22;5779;64.178;15.432;2023-08-06T13:46:19;22.80;99.90
11446;DHT22;5779;64.178;15.432;2023-08-06T13:49:06;22.40;99.90
11446;DHT22;5779;64.178;15.432;2023-08-06T13:51:53;21.90;99.90
11446;DHT22;5779;64.178;15.432;2023-08-06T13:54:39;21.40;99.90
11446;DHT22;5779;64.178;15.432;2023-08-06T13:57:26;21.20;99.90
11446;DHT22;5779;64.178;15.432;2023-08-06T14:00:14;21.20;99.90
11446;DHT22;5779;64.178;15.432;2023-08-06T14:03:01;21.70;99.90
11446;DHT22;5779;64.178;15.432;2023-08-06T14:05:48;22.20;99.90
11446;DHT22;5779;64.178;15.432;2023-08-06T14:08:35;22.20;99.90
11446;DHT22;5779;64.178;15.432;2023-08-06T14:11:22;22.10;99.90
11446;DHT22;5779;64.178;15.432;2023-08-06T14:14:09;22.30;99.90
11446;DHT22;5779;64.178;15.432;2023-08-06T14:16:57;22.70;99.90
11446;DHT22;5779;64.178;15.432;2023-08-06T14:19:44;22.90;99.90
11446;DHT22;5779;64.178;15.432;2023-08-06T14:22:31;22.80;99.90
11446;DHT22;5779;64.178;15.432;2023-08-06T14:25:18;22.80;99.90
11446;DHT22;5779;64.178;15.432;2023-08-06T14:28:05;23.20;99.90
11446;DHT22;5779;64.178;15.432;2023-08-06T14:30:52;22.80;99.90
11446;DHT22;5779;64.178;15.432;2023-08-06T14:33:40;22.30;99.90
11446;DHT22;5779;64.178;15.432;2023-08-06T14:36:27;22.40;99.90
11446;DHT22;5779;64.178;15.432;2023-08-06T14:39:13;22.20;99.90
11446;DHT22;5779;64.178;15.432;2023-08-06T14:42:01;22.10;99.90
11446;DHT22;5779;64.178;15.432;2023-08-06T14:44:48;21.80;99.90
11446;DHT22;5779;64.178;15.432;2023-08-06T14:47:35;21.50;99.90
11446;DHT22;5779;64.178;15.432;2023-08-06T14:50:23;21.20;99.90
11446;DHT22;5779;64.178;15.432;2023-08-06T14:53:10;21.00;99.90
11446;DHT22;5779;64.178;15.432;2023-08-06T14:55:58;21.20;99.90
11446;DHT22;5779;64.178;15.432;2023-08-06T14:58:45;21.30;99.90
11446;DHT22;5779;64.178;15.432;2023-08-06T15:01:32;21.60;99.90
11446;DHT22;5779;64.178;15.432;2023-08-06T15:04:19;22.00;99.90
11446;DHT22;5779;64.178;15.432;2023-08-06T15:07:07;22.20;99.90
11446;DHT22;5779;64.178;15.432;2023-08-06T15:09:54;22.40;99.90
11446;DHT22;5779;64.178;15.432;2023-08-06T15:12:41;22.60;99.90
11446;DHT22;5779;64.178;15.432;2023-08-06T15:15:27;22.50;99.90
11446;DHT22;5779;64.178;15.432;2023-08-06T15:18:14;22.50;99.90
11446;DHT22;5779;64.178;15.432;2023-08-06T15:21:01;22.60;99.90
11446;DHT22;5779;64.178;15.432;2023-08-06T15:23:49;22.50;99.90
11446;DHT22;5779;64.178;15.432;2023-08-06T15:26:36;22.30;99.90
11446;DHT22;5779;64.178;15.432;2023-08-06T15:29:23;21.80;99.90
11446;DHT22;5779;64.178;15.432;2023-08-06T15:32:10;21.70;99.90
11446;DHT22;5779;64.178;15.432;2023-08-06T15:34:56;21.60;99.90
11446;DHT22;5779;64.178;15.432;2023-08-06T15:37:43;21.20;99.90
11446;DHT22;5779;64.178;15.432;2023-08-06T15:40:31;21.20;99.90
11446;DHT22;5779;64.178;15.432;2023-08-06T15:43:18;21.10;99.90
11446;DHT22;5779;64.178;15.432;2023-08-06T15:46:04;20.90;99.90
11446;DHT22;5779;64.178;15.432;2023-08-06T15:48:51;20.80;99.90
11446;DHT22;5779;64.178;15.432;2023-08-06T15:51:38;20.90;99.90
11446;DHT22;5779;64.178;15.432;2023-08-06T15:54:26;21.00;99.90
11446;DHT22;5779;64.178;15.432;2023-08-06T15:57:14;21.00;99.90
11446;DHT22;5779;64.178;15.432;2023-08-06T16:00:03;21.00;99.90
11446;DHT22;5779;64.178;15.432;2023-08-06T16:02:50;20.90;99.90
11446;DHT22;5779;64.178;15.432;2023-08-06T16:05:37;20.90;99.90
11446;DHT22;5779;64.178;15.432;2023-08-06T16:08:24;21.10;99.90
11446;DHT22;5779;64.178;15.432;2023-08-06T16:11:11;21.20;99.90
11446;DHT22;5779;64.178;15.432;2023-08-06T16:13:59;21.20;99.90
11446;DHT22;5779;64.178;15.432;2023-08-06T16:16:46;21.10;99.90
11446;DHT22;5779;64.178;15.432;2023-08-06T16:19:32;21.10;99.90
11446;DHT22;5779;64.178;15.432;2023-08-06T16:22:19;21.10;99.90
11446;DHT22;5779;64.178;15.432;2023-08-06T16:25:07;21.20;99.90
11446;DHT22;5779;64.178;15.432;2023-08-06T16:27:57;21.20;99.90
11446;DHT22;5779;64.178;15.432;2023-08-06T16:30:46;21.10;99.90
11446;DHT22;5779;64.178;15.432;2023-08-06T16:33:33;21.10;99.90
11446;DHT22;5779;64.178;15.432;2023-08-06T16:36:20;21.00;99.90
11446;DHT22;5779;64.178;15.432;2023-08-06T16:39:06;20.90;99.90
11446;DHT22;5779;64.178;15.432;2023-08-06T16:41:53;20.80;99.90
11446;DHT22;5779;64.178;15.432;2023-08-06T16:44:43;20.80;99.90
11446;DHT22;5779;64.178;15.432;2023-08-06T16:47:31;20.80;99.90
11446;DHT22;5779;64.178;15.432;2023-08-06T16:50:17;20.80;99.90
11446;DHT22;5779;64.178;15.432;2023-08-06T16:53:06;20.90;99.90
11446;DHT22;5779;64.178;15.432;2023-08-06T16:55:54;21.00;99.90
11446;DHT22;5779;64.178;15.432;2023-08-06T16:58:42;21.00;99.90
11446;DHT22;5779;64.178;15.432;2023-08-06T17:01:28;21.00;99.90
11446;DHT22;5779;64.178;15.432;2023-08-06T17:04:17;21.10;99.90
11446;DHT22;5779;64.178;15.432;2023-08-06T17:07:04;21.20;99.90
11446;DHT22;5779;64.178;15.432;2023-08-06T17:09:51;21.30;99.90
11446;DHT22;5779;64.178;15.432;2023-08-06T17:12:37;21.40;99.90
11446;DHT22;5779;64.178;15.432;2023-08-06T17:15:24;21.40;99.90
11446;DHT22;5779;64.178;15.432;2023-08-06T17:18:10;21.40;99.90
11446;DHT22;5779;64.178;15.432;2023-08-06T17:21:02;21.50;99.90
11446;DHT22;5779;64.178;15.432;2023-08-06T17:23:49;21.70;99.90
11446;DHT22;5779;64.178;15.432;2023-08-06T17:26:35;21.70;99.90
11446;DHT22;5779;64.178;15.432;2023-08-06T17:29:21;21.90;99.90
11446;DHT22;5779;64.178;15.432;2023-08-06T17:32:08;21.20;99.90
11446;DHT22;5779;64.178;15.432;2023-08-06T17:34:56;20.70;99.90
11446;DHT22;5779;64.178;15.432;2023-08-06T17:37:44;19.90;99.90
11446;DHT22;5779;64.178;15.432;2023-08-06T17:40:31;19.40;99.90
11446;DHT22;5779;64.178;15.432;2023-08-06T17:43:17;19.00;99.90
11446;DHT22;5779;64.178;15.432;2023-08-06T17:46:04;19.00;99.90